Fort Thomas, Kentucky
Current Conditions -  °F | °C
As of 5:53 AM on Tuesday 21 Oct 2014 (Local Time) from KLUK Reporting Station
Overcast Overcast  
Wind Chill: 52°   Ceiling: 6500
Heat Index: 52°   Visibility: 10mi
Dew Point: 47°   Wind: 8mph
Humidity: 83%   Direction: 310°NW
Pressure: 29.96"   Gusts: NA
Location:  39.08°N, 84.45°W
Report Text: KLUK 210953Z 31007KT 10SM OVC065 11/08 A2996 RMK AO2 SLP144 T01110083
Loading
Personal Weather Stations






























Interactive Weather Map
Tropical Storm Tracking
New forecast layout! Learn more

10-Day Weather Forecast

Advertisements
Track Severe Weather on mobile